Aviation Digital Data Service (ADDS)

Output produced by METARs form (2038 UTC 01 October 2016)
found at http://www.aviationweather.gov/adds/metars/
 
KSAV 011953Z VRB03KT 10SM FEW040 30/12 A3001 RMK AO2 SLP160 T03000122 $